Time;durP1;ratioP1;P1;durP2;ratioP2;P2;SDS_P1;SDS_P2;PMS_P1;PMS_P2;Temp;Humidity;BMP_temperature;BMP_pressure;BME280_temperature;BME280_humidity;BME280_pressure;Samples;Min_cycle;Max_cycle;Signal;HPM_P1;HPM_P2
2022/02/25 01:47:03;;;;;;;;;;;;;;;;;;;;;
2022/02/25 03:11:34;;;;;;;;;3.00;0.33;;;;;8.06;100.00;102065.25;5979738;23;46854;-96
2022/02/25 04:41:40;;;;;;;;;1.33;1.00;;;;;7.86;100.00;102123.84;5517902;22;20307730;-96
2022/02/25 04:47:55;;;;;;;;;;;;;;;;;;;;;
2022/02/25 04:57:29;;;;;;;;;1.00;1.00;;;;;7.94;100.00;102151.47;6217536;22;45239;-96
2022/02/25 05:00:10;;;;;;;;;;;;;;;;;;;;;
2022/02/25 05:03:11;;;;;;;;;0.00;0.00;;;;;7.71;100.00;102138.41;6216413;22;75166;-96
2022/02/25 05:05:53;;;;;;;;;;;;;;;;;;;;;
2022/02/25 05:08:45;;;;;;;;;3.33;0.67;;;;;7.78;100.00;102155.47;6216730;22;68647;-96
2022/02/25 05:20:53;;;;;;;;;2.33;0.00;;;;;7.89;100.00;102182.50;6098470;23;45429;-96
2022/02/25 05:26:29;;;;;;;;;2.00;1.00;;;;;7.85;100.00;102182.13;6039872;23;45823;-96
2022/02/25 05:29:38;;;;;;;;;1.00;1.00;;;;;7.76;100.00;102164.91;6041117;23;45252;-96
2022/02/25 05:35:46;;;;;;;;;;;;;;;;;;;;;
2022/02/25 05:41:19;;;;;;;;;0.00;0.00;;;;;7.79;100.00;102175.63;5950069;23;45288;-96
2022/02/25 05:43:58;;;;;;;;;0.67;0.67;;;;;7.92;100.00;102185.34;5924859;23;45474;-96
2022/02/25 05:46:27;;;;;;;;;1.33;1.33;;;;;7.83;100.00;102187.25;5924667;23;45505;-95
2022/02/25 05:48:52;;;;;;;;;1.00;1.00;;;;;7.84;100.00;102191.66;5948073;23;47340;-96
2022/02/25 05:51:33;;;;;;;;;;;;;;;;;;;;;
2022/02/25 05:54:09;;;;;;;;;0.00;0.00;;;;;7.78;100.00;102173.78;5947680;23;68008;-96
2022/02/25 05:57:01;;;;;;;;;2.67;2.00;;;;;7.86;100.00;102187.47;5957547;23;45284;-94
2022/02/25 05:59:48;;;;;;;;;2.00;2.00;;;;;7.96;100.00;102217.00;5975620;23;47139;-95
2022/02/25 06:02:46;;;;;;;;;;;;;;;;;;;;;
2022/02/25 06:05:48;;;;;;;;;;;;;;;;;;;;;
2022/02/25 06:08:36;;;;;;;;;4.33;2.00;;;;;7.98;100.00;102220.63;6002354;23;45765;-96
2022/02/25 06:11:14;;;;;;;;;2.67;1.67;;;;;7.80;100.00;102201.00;5979850;23;47369;-95
2022/02/25 06:14:03;;;;;;;;;2.00;0.00;;;;;7.88;100.00;102212.06;5979931;23;45646;-96
2022/02/25 06:16:56;;;;;;;;;2.33;2.00;;;;;7.83;100.00;102198.59;5980578;23;45674;-96
2022/02/25 06:22:56;;;;;;;;;2.00;1.00;;;;;7.86;100.00;102223.19;6179762;23;46885;-94
2022/02/25 06:25:22;;;;;;;;;2.00;0.00;;;;;7.98;100.00;102242.47;6179835;23;45513;-95
2022/02/25 06:27:47;;;;;;;;;1.00;1.00;;;;;7.87;100.00;102231.13;6155498;23;45425;-93
2022/02/25 06:30:14;;;;;;;;;4.00;1.00;;;;;7.91;100.00;102245.38;6155249;23;45452;-95
2022/02/25 06:32:40;;;;;;;;;0.67;0.00;;;;;7.96;100.00;102257.13;6154707;23;47563;-94
2022/02/25 06:35:07;;;;;;;;;2.00;2.00;;;;;8.00;100.00;102251.34;6154438;23;45534;-94
2022/02/25 06:37:33;;;;;;;;;3.00;1.00;;;;;7.98;100.00;102263.38;6154356;23;45241;-95
2022/02/25 06:39:58;;;;;;;;;0.00;0.00;;;;;7.93;100.00;102257.78;6154750;23;45257;-94
2022/02/25 06:42:24;;;;;;;;;2.00;1.00;;;;;7.89;100.00;102250.47;6264377;22;46891;-94
2022/02/25 06:44:50;;;;;;;;;1.00;1.00;;;;;7.92;100.00;102248.09;6361684;22;45451;-95
2022/02/25 06:47:17;;;;;;;;;0.67;0.67;;;;;7.87;100.00;102243.28;6335355;22;45308;-94
2022/02/25 06:49:43;;;;;;;;;1.33;0.67;;;;;7.99;100.00;102252.13;6335387;22;45442;-96
2022/02/25 06:52:08;;;;;;;;;0.33;0.33;;;;;8.03;100.00;102256.81;6334255;22;47602;-95
2022/02/25 06:54:34;;;;;;;;;2.33;1.00;;;;;8.00;100.00;102253.03;6334979;22;45497;-96
2022/02/25 06:56:59;;;;;;;;;0.00;0.00;;;;;7.99;100.00;102251.22;6335336;22;45352;-95
2022/02/25 06:59:25;;;;;;;;;1.00;1.00;;;;;7.92;100.00;102241.97;6362313;22;45440;-95
2022/02/25 07:01:50;;;;;;;;;5.00;1.00;;;;;7.94;100.00;102250.84;6336591;22;46954;-95
2022/02/25 07:04:15;;;;;;;;;5.00;2.00;;;;;7.92;100.00;102249.81;6333833;22;45554;-96
2022/02/25 07:06:44;;;;;;;;;2.33;1.67;;;;;8.01;100.00;102263.66;6335342;22;45575;-95
2022/02/25 07:09:09;;;;;;;;;4.33;2.00;;;;;7.97;100.00;102243.25;6362171;22;45592;-95
2022/02/25 07:11:37;;;;;;;;;1.00;1.00;;;;;8.18;100.00;102274.53;6334851;22;46800;-95
2022/02/25 07:14:03;;;;;;;;;2.67;1.67;;;;;8.16;100.00;102279.66;6335338;22;45664;-95
2022/02/25 07:16:29;;;;;;;;;2.00;1.00;;;;;8.09;100.00;102259.00;6335225;22;45385;-95
2022/02/25 07:18:54;;;;;;;;;3.33;3.00;;;;;8.23;100.00;102273.19;6361925;22;45230;-94
2022/02/25 07:21:20;;;;;;;;;2.00;1.00;;;;;8.24;100.00;102275.03;6335892;22;48173;-95
2022/02/25 07:23:45;;;;;;;;;2.00;0.00;;;;;8.19;100.00;102254.53;6361469;22;45345;-96
2022/02/25 07:26:10;;;;;;;;;1.67;1.00;;;;;8.28;100.00;102265.69;6335299;22;45221;-96
2022/02/25 07:28:36;;;;;;;;;1.00;1.00;;;;;8.38;100.00;102264.72;6362353;22;45263;-96
2022/02/25 07:31:01;;;;;;;;;4.33;1.00;;;;;8.43;100.00;102270.31;6334543;22;47877;-95
2022/02/25 07:33:27;;;;;;;;;1.00;1.00;;;;;8.52;100.00;102259.66;6333291;22;46027;-93
2022/02/25 07:35:53;;;;;;;;;1.67;1.67;;;;;8.67;100.00;102268.75;6332217;22;45385;-93
2022/02/25 07:38:18;;;;;;;;;1.33;1.00;;;;;8.75;100.00;102268.44;6332563;22;45467;-92
2022/02/25 07:40:44;;;;;;;;;6.67;1.00;;;;;8.76;100.00;102275.50;6359320;22;48227;-93
2022/02/25 07:43:12;;;;;;;;;2.67;1.33;;;;;8.81;100.00;102279.41;6333754;22;45338;-93
2022/02/25 07:45:37;;;;;;;;;2.00;1.00;;;;;8.83;100.00;102283.03;6358820;22;44721;-93
2022/02/25 07:48:03;;;;;;;;;1.00;1.00;;;;;8.87;100.00;102299.88;6358488;22;45175;-93
2022/02/25 07:50:28;;;;;;;;;0.00;0.00;;;;;8.81;100.00;102288.16;6374226;22;47102;-92
2022/02/25 07:52:54;;;;;;;;;2.00;1.00;;;;;8.87;100.00;102292.03;6340753;22;45581;-92
2022/02/25 07:55:19;;;;;;;;;1.25;1.00;;;;;8.93;100.00;102285.59;6333470;22;45216;-93
2022/02/25 07:57:45;;;;;;;;;1.33;1.00;;;;;8.99;100.00;102298.25;6360093;22;45596;-93
2022/02/25 08:00:15;;;;;;;;;0.67;0.67;;;;;9.08;100.00;102297.09;6332488;22;47771;-93
2022/02/25 08:02:44;;;;;;;;;1.00;1.00;;;;;9.10;100.00;102293.81;6333229;22;45737;-96
2022/02/25 08:05:10;;;;;;;;;2.00;0.33;;;;;9.15;100.00;102307.25;6332256;22;45753;-93
2022/02/25 08:07:35;;;;;;;;;2.00;2.00;;;;;9.21;100.00;102314.69;6359138;22;45297;-93
2022/02/25 08:10:01;;;;;;;;;2.33;1.00;;;;;9.28;100.00;102309.09;6337615;22;45388;-93
2022/02/25 08:12:27;;;;;;;;;1.00;1.00;;;;;9.34;100.00;102311.28;6331808;22;45425;-93
2022/02/25 08:14:53;;;;;;;;;1.00;1.00;;;;;9.45;100.00;102317.34;6330113;22;45699;-92
2022/02/25 08:17:21;;;;;;;;;3.00;2.00;;;;;9.54;100.00;102322.34;6356618;22;45468;-92
2022/02/25 08:19:47;;;;;;;;;1.33;1.00;;;;;9.57;100.00;102317.34;6333419;22;45502;-91
2022/02/25 08:22:12;;;;;;;;;3.00;1.67;;;;;9.66;100.00;102330.25;6330639;22;45725;-91
2022/02/25 08:24:37;;;;;;;;;7.67;1.67;;;;;9.69;100.00;102326.13;6333296;22;45262;-92
2022/02/25 08:27:04;;;;;;;;;0.00;0.00;;;;;9.76;100.00;102329.22;6329459;22;45399;-93
2022/02/25 08:29:29;;;;;;;;;3.00;2.00;;;;;9.83;100.00;102324.53;6333007;22;46255;-93
2022/02/25 08:31:54;;;;;;;;;2.33;2.33;;;;;9.87;100.00;102332.66;6332200;22;45229;-92
2022/02/25 08:34:20;;;;;;;;;1.67;1.00;;;;;9.91;100.00;102327.72;6331749;22;45286;-94
2022/02/25 08:36:45;;;;;;;;;5.00;1.00;;;;;10.02;100.00;102344.28;6332522;22;45210;-93
2022/02/25 08:39:11;;;;;;;;;3.00;1.00;;;;;10.09;100.00;102342.09;6333773;22;45270;-94
2022/02/25 08:41:36;;;;;;;;;2.67;1.00;;;;;10.16;100.00;102339.09;6332363;22;45204;-93
2022/02/25 08:44:02;;;;;;;;;3.33;2.67;;;;;10.23;100.00;102344.00;6331938;22;45308;-93
2022/02/25 08:46:29;;;;;;;;;2.00;0.00;;;;;10.33;100.00;102342.06;6332458;22;45349;-93
2022/02/25 08:48:54;;;;;;;;;2.67;1.00;;;;;10.42;100.00;102347.94;6331643;22;47526;-94
2022/02/25 08:51:19;;;;;;;;;4.00;2.00;;;;;10.53;100.00;102366.22;6332699;22;45403;-93
2022/02/25 08:53:45;;;;;;;;;1.00;1.00;;;;;10.58;100.00;102354.34;6331005;22;45960;-94
2022/02/25 08:56:11;;;;;;;;;4.00;2.67;;;;;10.63;100.00;102349.41;6334118;22;45430;-93
2022/02/25 08:58:36;;;;;;;;;2.33;0.67;;;;;10.69;100.00;102366.53;6331760;22;46649;-94
2022/02/25 09:01:02;;;;;;;;;0.67;0.00;;;;;10.74;100.00;102358.97;6330287;22;45244;-94
2022/02/25 09:03:27;;;;;;;;;2.00;1.00;;;;;10.72;100.00;102369.34;6331913;22;45328;-94
2022/02/25 09:05:53;;;;;;;;;5.67;2.00;;;;;10.80;100.00;102384.75;6333901;22;45355;-93
2022/02/25 09:08:18;;;;;;;;;1.00;1.00;;;;;10.86;100.00;102381.66;6333946;22;45296;-94
2022/02/25 09:10:47;;;;;;;;;2.67;2.00;;;;;10.88;100.00;102383.56;6334023;22;45309;-92
2022/02/25 09:13:12;;;;;;;;;0.67;0.67;;;;;10.88;100.00;102374.78;6332816;22;45451;-93
2022/02/25 09:15:37;;;;;;;;;1.33;1.33;;;;;10.95;100.00;102379.69;6330590;22;45284;-94
2022/02/25 09:18:04;;;;;;;;;1.67;1.00;;;;;11.06;100.00;102390.94;6334643;22;46251;-93
2022/02/25 09:20:30;;;;;;;;;2.00;2.00;;;;;11.10;100.00;102387.72;6333328;22;45733;-94
2022/02/25 09:22:57;;;;;;;;;1.33;1.33;;;;;11.18;100.00;102397.03;6333807;22;45362;-94
2022/02/25 09:25:26;;;;;;;;;2.33;1.00;;;;;11.28;100.00;102409.13;6335783;22;45553;-94
2022/02/25 09:27:52;;;;;;;;;2.33;1.00;;;;;11.37;100.00;102414.09;6335749;22;46451;-95
2022/02/25 09:30:17;;;;;;;;;2.67;1.67;;;;;11.44;100.00;102402.25;6336466;22;45357;-94
2022/02/25 09:32:43;;;;;;;;;3.00;2.00;;;;;11.60;100.00;102405.94;6333272;22;45283;-94
2022/02/25 09:35:09;;;;;;;;;1.00;1.00;;;;;11.73;100.00;102418.22;6331334;22;45390;-95
2022/02/25 09:37:35;;;;;;;;;2.67;2.00;;;;;11.76;100.00;102417.50;6333224;22;47203;-94
2022/02/25 09:40:07;;;;;;;;;3.67;1.33;;;;;11.82;100.00;102416.22;6336056;22;45445;-94
2022/02/25 09:42:37;;;;;;;;;1.67;1.67;;;;;11.88;100.00;102415.69;6353384;22;45347;-95
2022/02/25 09:45:04;;;;;;;;;1.67;1.33;;;;;11.94;100.00;102421.38;6333887;22;45313;-95
2022/02/25 09:47:30;;;;;;;;;2.00;2.00;;;;;12.02;100.00;102423.63;6360145;22;48083;-94
2022/02/25 09:49:56;;;;;;;;;4.00;3.00;;;;;12.07;100.00;102424.84;6333539;22;45595;-93
2022/02/25 09:52:22;;;;;;;;;0.67;0.67;;;;;12.17;100.00;102436.91;6332460;22;56590;-94
2022/02/25 09:54:48;;;;;;;;;2.67;2.00;;;;;12.20;100.00;102436.19;6332800;22;45584;-95
2022/02/25 09:57:13;;;;;;;;;4.67;2.67;;;;;12.24;100.00;102446.16;6336176;22;46028;-95
2022/02/25 09:59:39;;;;;;;;;3.00;1.33;;;;;12.29;100.00;102440.34;6333641;22;45197;-94
2022/02/25 10:02:06;;;;;;;;;3.00;2.00;;;;;12.39;100.00;102449.78;6333899;22;45342;-95
2022/02/25 10:04:33;;;;;;;;;4.33;3.00;;;;;12.44;100.00;102460.63;6335939;22;45301;-95
2022/02/25 10:06:58;;;;;;;;;2.67;2.67;;;;;12.62;100.00;102460.00;6359801;22;47029;-94
2022/02/25 10:09:34;;;;;;;;;1.67;1.33;;;;;13.04;100.00;102472.28;6334923;22;45276;-95
2022/02/25 10:12:02;;;;;;;;;5.00;5.00;;;;;13.39;100.00;102460.34;6333885;22;45763;-95
2022/02/25 10:14:36;;;;;;;;;4.33;3.00;;;;;13.72;100.00;102454.44;6331590;22;45286;-93
2022/02/25 10:17:07;;;;;;;;;7.67;2.00;;;;;13.91;100.00;102455.53;6335455;22;46517;-94
2022/02/25 10:19:33;;;;;;;;;6.67;2.33;;;;;13.98;100.00;102453.22;6333352;22;46111;-93
2022/02/25 10:22:26;;;;;;;;;1.67;1.67;;;;;14.23;100.00;102447.66;6335231;22;45559;-94
2022/02/25 10:25:02;;;;;;;;;4.00;2.00;;;;;14.12;100.00;102452.31;6332672;22;45752;-94
2022/02/25 10:27:34;;;;;;;;;5.33;2.67;;;;;14.15;100.00;102465.69;6335169;22;45356;-94
2022/02/25 10:30:14;;;;;;;;;3.33;2.00;;;;;14.27;100.00;102476.06;6335886;22;45296;-94
2022/02/25 10:32:41;;;;;;;;;5.33;2.00;;;;;14.14;100.00;102484.09;6333630;22;45292;-94
2022/02/25 10:35:19;;;;;;;;;2.33;2.00;;;;;14.44;100.00;102481.41;6335234;22;45331;-94
2022/02/25 10:38:07;;;;;;;;;6.33;1.00;;;;;14.52;100.00;102474.84;6333262;22;47211;-94
2022/02/25 10:40:39;;;;;;;;;2.67;1.33;;;;;14.53;100.00;102486.31;6333309;22;45263;-94
2022/02/25 10:43:21;;;;;;;;;3.00;2.00;;;;;14.50;100.00;102479.13;6333997;22;45246;-94
2022/02/25 10:45:51;;;;;;;;;3.33;2.33;;;;;14.59;100.00;102469.88;6335806;22;45272;-93
2022/02/25 10:48:26;;;;;;;;;5.67;3.67;;;;;14.64;100.00;102466.69;6360154;22;48803;-93
2022/02/25 10:50:56;;;;;;;;;2.33;2.33;;;;;14.72;100.00;102468.84;6335618;22;45735;-93
2022/02/25 10:53:47;;;;;;;;;4.00;3.00;;;;;14.92;100.00;102467.34;6362061;22;45236;-93
2022/02/25 10:56:15;;;;;;;;;3.00;2.00;;;;;15.08;100.00;102470.81;6334785;22;45423;-94
2022/02/25 10:58:56;;;;;;;;;5.33;3.00;;;;;15.37;100.00;102475.88;6361654;22;48513;-95
2022/02/25 11:01:35;;;;;;;;;9.33;6.00;;;;;15.52;100.00;102489.91;6339541;22;45362;-92
2022/02/25 11:04:06;;;;;;;;;7.00;3.00;;;;;15.69;100.00;102483.69;6370123;22;45386;-92
2022/02/25 11:06:32;;;;;;;;;5.33;2.00;;;;;15.79;100.00;102487.72;6340510;22;45292;-92
2022/02/25 11:08:58;;;;;;;;;3.00;2.67;;;;;15.90;100.00;102477.69;6341244;22;47582;-94
2022/02/25 11:11:24;;;;;;;;;4.00;3.00;;;;;15.86;100.00;102485.47;6340459;22;45303;-91
2022/02/25 11:13:51;;;;;;;;;2.00;1.33;;;;;15.73;100.00;102486.59;6339611;22;45276;-93
2022/02/25 11:16:20;;;;;;;;;6.33;3.00;;;;;15.71;100.00;102474.09;6388406;22;44709;-93
2022/02/25 11:18:47;;;;;;;;;4.33;3.67;;;;;15.59;100.00;102482.31;6361232;22;47709;-95
2022/02/25 11:21:17;;;;;;;;;6.00;3.00;;;;;15.57;100.00;102489.25;6348791;22;45358;-93
2022/02/25 11:23:43;;;;;;;;;7.33;3.33;;;;;15.60;100.00;102485.03;6335040;22;45348;-95
2022/02/25 11:26:10;;;;;;;;;6.67;3.00;;;;;15.46;100.00;102483.41;6332502;22;45483;-94
2022/02/25 11:28:37;;;;;;;;;4.00;2.00;;;;;15.53;100.00;102489.09;6335048;22;45523;-94
2022/02/25 11:31:09;;;;;;;;;8.00;2.00;;;;;15.75;100.00;102495.50;6360946;22;45915;-94
2022/02/25 11:33:35;;;;;;;;;6.00;3.33;;;;;15.63;100.00;102489.56;6337309;22;45222;-95
2022/02/25 11:36:05;;;;;;;;;5.00;3.00;;;;;15.52;100.00;102491.66;6334742;22;45351;-93
2022/02/25 11:38:42;;;;;;;;;3.00;1.00;;;;;15.63;100.00;102487.84;6360224;22;47629;-95
2022/02/25 11:41:29;;;;;;;;;7.67;2.00;;;;;15.59;100.00;102490.25;6335608;22;45354;-96
2022/02/25 11:43:57;;;;;;;;;1.67;1.67;;;;;15.49;100.00;102487.09;6336124;22;45212;-95
2022/02/25 11:46:29;;;;;;;;;2.00;2.00;;;;;15.54;100.00;102495.28;6336678;22;45371;-95
2022/02/25 11:49:01;;;;;;;;;4.33;3.00;;;;;15.56;100.00;102480.41;6333884;22;46794;-95
2022/02/25 11:51:39;;;;;;;;;3.33;1.00;;;;;15.73;100.00;102485.66;6332847;22;45451;-94
2022/02/25 11:54:26;;;;;;;;;4.33;1.00;;;;;15.89;100.00;102483.81;6333469;22;45290;-94
2022/02/25 11:57:04;;;;;;;;;3.67;2.00;;;;;15.89;100.00;102487.38;6334664;22;45538;-96
2022/02/25 11:59:32;;;;;;;;;4.00;2.00;;;;;15.86;100.00;102487.22;6336692;22;45596;-96
2022/02/25 12:02:08;;;;;;;;;3.00;1.00;;;;;15.96;100.00;102496.53;6333502;22;45332;-96
2022/02/25 12:04:36;;;;;;;;;4.00;2.67;;;;;15.88;100.00;102498.78;6337901;22;45240;-96
2022/02/25 12:07:05;;;;;;;;;5.00;3.00;;;;;15.77;100.00;102513.22;6338473;22;45233;-94
2022/02/25 12:09:51;;;;;;;;;2.33;2.33;;;;;15.61;100.00;102536.25;6333287;22;46435;-92
2022/02/25 12:12:22;;;;;;;;;2.67;2.33;;;;;15.40;100.00;102518.38;6333565;22;45272;-95
2022/02/25 12:15:04;;;;;;;;;2.00;2.00;;;;;15.40;100.00;102515.72;6336553;22;45207;-96
2022/02/25 12:17:39;;;;;;;;;3.33;3.00;;;;;15.54;100.00;102513.81;6334756;22;45229;-96
2022/02/25 12:20:30;;;;;;;;;1.33;1.33;;;;;15.50;100.00;102515.41;6333676;22;47286;-94
2022/02/25 12:23:11;;;;;;;;;3.00;2.00;;;;;15.32;100.00;102514.41;6333784;22;45583;-94
2022/02/25 12:25:36;;;;;;;;;2.00;2.00;;;;;15.15;100.00;102514.41;6360560;22;45384;-95
2022/02/25 12:28:04;;;;;;;;;5.33;2.00;;;;;15.15;100.00;102507.34;6334459;22;45611;-95
2022/02/25 12:30:43;;;;;;;;;2.00;1.00;;;;;15.13;100.00;102514.31;6333831;22;48166;-95
2022/02/25 12:33:31;;;;;;;;;4.00;3.67;;;;;15.04;100.00;102506.78;6332569;22;45234;-95
2022/02/25 12:35:59;;;;;;;;;2.00;2.00;;;;;14.91;100.00;102491.97;6332437;22;45285;-94
2022/02/25 12:38:26;;;;;;;;;4.00;4.00;;;;;14.89;100.00;102504.22;6333090;22;45488;-94
2022/02/25 12:40:53;;;;;;;;;5.33;3.00;;;;;14.89;100.00;102498.00;6330389;22;48085;-94
2022/02/25 12:43:20;;;;;;;;;9.00;3.33;;;;;14.87;100.00;102502.31;6333280;22;45348;-95
2022/02/25 12:45:46;;;;;;;;;4.67;3.67;;;;;14.83;100.00;102501.16;6360127;22;45339;-95
2022/02/25 12:48:11;;;;;;;;;5.67;4.00;;;;;14.86;100.00;102496.09;6360115;22;45374;-95
2022/02/25 12:50:44;;;;;;;;;6.33;3.33;;;;;14.97;100.00;102497.59;6360087;22;47212;-95
2022/02/25 12:53:10;;;;;;;;;5.33;3.00;;;;;14.99;100.00;102502.06;6333298;22;45890;-95
2022/02/25 12:55:35;;;;;;;;;3.00;3.00;;;;;15.27;100.00;102487.69;6361007;22;45400;-95
2022/02/25 12:58:01;;;;;;;;;5.00;4.00;;;;;15.48;100.00;102494.97;6334114;22;45382;-94
2022/02/25 13:00:26;;;;;;;;;3.00;3.00;;;;;15.55;100.00;102506.78;6334409;22;47131;-94
2022/02/25 13:02:54;;;;;;;;;2.67;2.67;;;;;15.59;100.00;102504.38;6329844;22;45674;-94
2022/02/25 13:05:23;;;;;;;;;4.00;4.00;;;;;15.70;100.00;102504.94;6332798;22;45426;-93
2022/02/25 13:07:56;;;;;;;;;4.33;3.00;;;;;15.73;100.00;102496.25;6330237;22;45514;-93
2022/02/25 13:10:29;;;;;;;;;2.00;2.00;;;;;16.02;100.00;102494.22;6332696;22;47284;-93
2022/02/25 13:12:55;;;;;;;;;1.00;1.00;;;;;16.14;100.00;102500.97;6332271;22;45354;-93
2022/02/25 13:15:28;;;;;;;;;4.67;3.67;;;;;16.33;100.00;102494.88;6331792;22;45648;-93
2022/02/25 13:17:53;;;;;;;;;6.33;4.00;;;;;16.55;100.00;102502.97;6334010;22;45638;-93
2022/02/25 13:20:19;;;;;;;;;8.33;3.00;;;;;16.83;100.00;102499.91;6333895;22;47929;-94
2022/02/25 13:22:46;;;;;;;;;3.67;3.00;;;;;16.87;100.00;102503.63;6359221;22;45687;-93
2022/02/25 13:25:12;;;;;;;;;5.33;1.67;;;;;16.79;100.00;102497.03;6334882;22;45784;-92
2022/02/25 13:27:49;;;;;;;;;2.00;2.00;;;;;16.75;100.00;102501.31;6332923;22;45308;-93
2022/02/25 13:30:21;;;;;;;;;3.00;0.00;;;;;16.63;100.00;102498.94;6333137;22;47229;-93
2022/02/25 13:32:49;;;;;;;;;4.00;2.00;;;;;16.40;100.00;102501.38;6332184;22;45728;-93
2022/02/25 13:35:15;;;;;;;;;3.33;1.33;;;;;16.20;100.00;102488.06;6331871;22;45313;-94
2022/02/25 13:38:11;;;;;;;;;3.00;2.00;;;;;16.18;100.00;102492.38;6358331;22;45665;-92
2022/02/25 13:40:46;;;;;;;;;3.00;3.00;;;;;16.05;100.00;102491.75;6356322;22;47144;-93
2022/02/25 13:43:17;;;;;;;;;2.33;1.67;;;;;15.99;100.00;102509.94;6333780;22;45340;-94
2022/02/25 13:45:43;;;;;;;;;2.67;0.00;;;;;15.83;100.00;102498.56;6333672;22;45197;-92
2022/02/25 13:53:44;;;;;;;;;2.67;1.67;;;;;15.55;100.00;102489.16;6333702;22;45507;-93
2022/02/25 13:56:10;;;;;;;;;1.33;1.00;;;;;15.55;100.00;102504.13;6358898;22;45302;-93
2022/02/25 13:58:35;;;;;;;;;1.00;1.00;;;;;15.52;100.00;102489.91;6359394;22;45378;-93
2022/02/25 14:01:01;;;;;;;;;1.67;1.67;;;;;15.48;100.00;102498.53;6332225;22;46901;-93
2022/02/25 14:03:38;;;;;;;;;0.00;0.00;;;;;15.53;100.00;102486.47;6330743;22;45814;-93
2022/02/25 14:06:32;;;;;;;;;1.00;1.00;;;;;15.56;100.00;102498.94;6333122;22;45295;-93
2022/02/25 14:09:00;;;;;;;;;2.00;1.00;;;;;15.50;100.00;102488.03;6332262;22;45701;-93
2022/02/25 14:11:33;;;;;;;;;3.00;1.00;;;;;15.59;100.00;102493.78;6334543;22;46619;-94
2022/02/25 14:14:00;;;;;;;;;3.00;2.00;;;;;15.53;100.00;102499.69;6332640;22;45384;-93
2022/02/25 14:16:28;;;;;;;;;1.00;1.00;;;;;15.58;100.00;102504.31;6357052;22;45403;-93
2022/02/25 14:19:19;;;;;;;;;2.00;0.00;;;;;15.65;100.00;102495.84;6358502;22;45543;-94
2022/02/25 14:21:46;;;;;;;;;2.00;2.00;;;;;15.62;100.00;102499.25;6332220;22;48369;-93
2022/02/25 14:24:29;;;;;;;;;2.00;1.00;;;;;15.60;100.00;102494.69;6332209;22;45371;-93
2022/02/25 14:27:09;;;;;;;;;1.00;0.00;;;;;15.71;100.00;102498.84;6332231;22;45382;-93
2022/02/25 14:29:34;;;;;;;;;4.00;1.67;;;;;15.66;100.00;102504.72;6332589;22;45418;-94
2022/02/25 14:32:05;;;;;;;;;2.00;2.00;;;;;15.66;100.00;102499.41;6358452;22;47215;-93
2022/02/25 14:34:40;;;;;;;;;1.00;1.00;;;;;15.69;100.00;102505.78;6332707;22;45702;-93
2022/02/25 14:37:06;;;;;;;;;2.33;2.33;;;;;15.66;100.00;102496.78;6358733;22;45213;-93
2022/02/25 14:39:31;;;;;;;;;2.67;2.67;;;;;15.72;100.00;102513.00;6332103;22;45261;-92
2022/02/25 14:41:57;;;;;;;;;3.00;3.00;;;;;15.63;100.00;102508.09;6358723;22;47874;-92
2022/02/25 14:44:22;;;;;;;;;3.67;1.33;;;;;15.51;100.00;102513.66;6333548;22;46047;-92
2022/02/25 14:46:49;;;;;;;;;1.67;1.33;;;;;15.33;100.00;102506.56;6344887;22;45382;-92
2022/02/25 14:49:14;;;;;;;;;1.00;1.00;;;;;15.21;100.00;102505.88;6386927;22;44922;-93
2022/02/25 14:51:40;;;;;;;;;5.67;2.00;;;;;15.12;100.00;102511.59;6382153;22;47158;-92
2022/02/25 14:54:05;;;;;;;;;2.00;1.00;;;;;15.05;100.00;102515.63;6372640;22;44864;-91
2022/02/25 14:56:30;;;;;;;;;2.67;2.00;;;;;14.96;100.00;102506.38;6362114;22;45614;-92
2022/02/25 14:58:56;;;;;;;;;2.00;2.00;;;;;14.88;100.00;102506.75;6329548;22;45737;-92
2022/02/25 15:01:21;;;;;;;;;2.00;1.00;;;;;14.83;100.00;102502.09;6330786;22;47368;-92
2022/02/25 15:03:48;;;;;;;;;2.67;1.00;;;;;14.83;100.00;102517.03;6330527;22;46199;-92
2022/02/25 15:06:14;;;;;;;;;1.00;1.00;;;;;14.79;100.00;102507.13;6330999;22;45339;-92
2022/02/25 15:08:39;;;;;;;;;1.00;0.00;;;;;14.78;100.00;102505.28;6330940;22;45400;-92
2022/02/25 15:11:05;;;;;;;;;1.00;0.00;;;;;14.72;100.00;102519.97;6357173;22;46923;-92
2022/02/25 15:13:30;;;;;;;;;1.33;0.00;;;;;14.71;100.00;102517.25;6330468;22;45772;-92
2022/02/25 15:15:57;;;;;;;;;1.00;0.00;;;;;14.70;100.00;102518.06;6331138;22;45383;-91
2022/02/25 15:18:23;;;;;;;;;1.00;1.00;;;;;14.70;100.00;102518.97;6330965;22;45368;-91
2022/02/25 15:20:49;;;;;;;;;1.00;1.00;;;;;14.66;100.00;102527.56;6330175;22;47641;-92
2022/02/25 15:23:14;;;;;;;;;1.00;0.00;;;;;14.61;100.00;102523.75;6330684;22;45814;-91
2022/02/25 15:25:40;;;;;;;;;2.67;1.00;;;;;14.55;100.00;102529.59;6330619;22;45404;-92
2022/02/25 15:28:06;;;;;;;;;0.00;0.00;;;;;14.48;100.00;102527.41;6357107;22;45497;-92
2022/02/25 15:30:31;;;;;;;;;1.00;1.00;;;;;14.43;100.00;102528.88;6357282;22;48219;-92
2022/02/25 15:32:58;;;;;;;;;2.00;1.00;;;;;14.43;100.00;102536.81;6331144;22;45223;-92
2022/02/25 15:35:24;;;;;;;;;0.00;0.00;;;;;14.33;100.00;102532.72;6331392;22;45481;-93
2022/02/25 15:37:49;;;;;;;;;1.00;1.00;;;;;14.24;100.00;102534.00;6330153;22;45550;-92
2022/02/25 15:40:14;;;;;;;;;1.00;1.00;;;;;14.19;100.00;102538.09;6330518;22;47177;-92
2022/02/25 15:42:40;;;;;;;;;1.33;1.00;;;;;14.15;100.00;102534.34;6356889;22;45687;-92
2022/02/25 15:45:07;;;;;;;;;0.67;0.67;;;;;14.14;100.00;102532.53;6331349;22;45385;-91
2022/02/25 15:47:32;;;;;;;;;1.00;1.00;;;;;14.12;100.00;102550.00;6357930;22;45351;-93
2022/02/25 15:49:58;;;;;;;;;1.33;1.33;;;;;14.05;100.00;102543.47;6330667;22;47119;-93
2022/02/25 15:52:23;;;;;;;;;2.67;1.00;;;;;14.03;100.00;102539.81;6357122;22;45458;-94
2022/02/25 15:54:48;;;;;;;;;1.67;1.67;;;;;13.98;100.00;102541.28;6357029;22;46166;-93
2022/02/25 15:57:14;;;;;;;;;3.00;0.00;;;;;13.97;100.00;102552.63;6331612;22;45281;-91
2022/02/25 15:59:39;;;;;;;;;1.33;0.00;;;;;13.96;100.00;102551.75;6331089;22;47317;-92
2022/02/25 16:02:04;;;;;;;;;3.00;3.00;;;;;13.91;100.00;102547.00;6356562;22;45354;-92
2022/02/25 16:04:30;;;;;;;;;2.00;1.00;;;;;13.91;100.00;102555.84;6328197;22;45362;-91
2022/02/25 16:06:55;;;;;;;;;1.33;1.00;;;;;13.87;100.00;102548.53;6332105;22;45439;-92
2022/02/25 16:09:21;;;;;;;;;0.67;0.67;;;;;13.83;100.00;102552.72;6333151;22;46800;-92
2022/02/25 16:11:47;;;;;;;;;2.67;1.00;;;;;13.84;100.00;102564.19;6330155;22;45277;-88
2022/02/25 16:14:12;;;;;;;;;2.67;1.33;;;;;13.81;100.00;102558.72;6332367;22;45485;-89
2022/02/25 16:16:39;;;;;;;;;4.00;2.33;;;;;13.79;100.00;102558.63;6331679;22;45383;-89
2022/02/25 16:19:07;;;;;;;;;5.33;1.00;;;;;13.84;100.00;102562.47;6332392;22;46288;-91
2022/02/25 16:21:33;;;;;;;;;1.33;1.00;;;;;13.77;100.00;102565.53;6329494;22;46437;-89
2022/02/25 16:23:59;;;;;;;;;1.00;1.00;;;;;13.78;100.00;102579.66;6330735;22;45392;-91
2022/02/25 16:26:24;;;;;;;;;4.33;2.33;;;;;13.74;100.00;102567.97;6355838;22;45462;-90
2022/02/25 16:28:50;;;;;;;;;4.00;2.67;;;;;13.73;100.00;102568.81;6332575;22;46682;-92
2022/02/25 16:31:18;;;;;;;;;3.00;1.33;;;;;13.73;100.00;102582.94;6358192;22;45439;-92
2022/02/25 16:33:43;;;;;;;;;4.00;1.00;;;;;13.71;100.00;102573.09;6328957;22;45439;-91
2022/02/25 16:36:10;;;;;;;;;2.00;1.67;;;;;13.70;100.00;102582.72;6331399;22;45420;-92
2022/02/25 16:38:38;;;;;;;;;3.33;2.00;;;;;13.69;100.00;102580.91;6329477;22;47221;-91
2022/02/25 16:41:05;;;;;;;;;2.00;2.00;;;;;13.67;100.00;102582.53;6329238;22;45428;-90
2022/02/25 16:43:32;;;;;;;;;3.33;2.67;;;;;13.65;100.00;102588.53;6333451;22;45305;-90
2022/02/25 16:45:57;;;;;;;;;1.00;1.00;;;;;13.59;100.00;102591.69;6330225;22;45693;-89
2022/02/25 16:48:23;;;;;;;;;1.33;1.33;;;;;13.56;100.00;102587.09;6330912;22;46362;-90
2022/02/25 16:50:49;;;;;;;;;3.67;3.00;;;;;13.59;100.00;102582.06;6331533;22;45261;-92
2022/02/25 16:53:15;;;;;;;;;2.00;2.00;;;;;13.49;100.00;102591.09;6332047;22;45371;-93
2022/02/25 16:55:41;;;;;;;;;3.67;2.00;;;;;13.50;100.00;102595.53;6330063;22;45589;-93